sensor_id;sensor_type;location;lat;lon;timestamp;pressure;altitude;pressure_sealevel;temperature;humidity
5780;BME280;2916;49.798;10.022;2023-05-14T00:00:15;146819.94;;;10.26;86.82
5780;BME280;2916;49.798;10.022;2023-05-14T00:02:42;146798.78;;;10.17;87.12
5780;BME280;2916;49.798;10.022;2023-05-14T00:05:09;146788.84;;;10.13;86.96
5780;BME280;2916;49.798;10.022;2023-05-14T00:07:36;146770.25;;;10.05;87.26
5780;BME280;2916;49.798;10.022;2023-05-14T00:10:05;146751.63;;;9.98;87.76
5780;BME280;2916;49.798;10.022;2023-05-14T00:12:32;146749.16;;;9.97;89.01
5780;BME280;2916;49.798;10.022;2023-05-14T00:15:01;146754.16;;;9.99;89.09
5780;BME280;2916;49.798;10.022;2023-05-14T00:17:28;146729.31;;;9.89;88.87
5780;BME280;2916;49.798;10.022;2023-05-14T00:19:55;146711.94;;;9.81;88.49
5780;BME280;2916;49.798;10.022;2023-05-14T00:22:24;146699.56;;;9.76;88.75
5780;BME280;2916;49.798;10.022;2023-05-14T00:24:51;146697.09;;;9.75;89.03
5780;BME280;2916;49.798;10.022;2023-05-14T00:27:18;146713.19;;;9.82;89.19
5780;BME280;2916;49.798;10.022;2023-05-14T00:29:45;146711.94;;;9.81;88.77
5780;BME280;2916;49.798;10.022;2023-05-14T00:32:14;146678.50;;;9.68;88.95
5780;BME280;2916;49.798;10.022;2023-05-14T00:34:41;146687.16;;;9.71;89.88
5780;BME280;2916;49.798;10.022;2023-05-14T00:37:08;146697.09;;;9.75;91.14
5780;BME280;2916;49.798;10.022;2023-05-14T00:39:35;146689.63;;;9.72;90.66
5780;BME280;2916;49.798;10.022;2023-05-14T00:42:03;146682.19;;;9.69;91.18
5780;BME280;2916;49.798;10.022;2023-05-14T00:44:30;146687.16;;;9.71;90.96
5780;BME280;2916;49.798;10.022;2023-05-14T00:46:57;146682.19;;;9.69;91.46
5780;BME280;2916;49.798;10.022;2023-05-14T00:49:26;146679.72;;;9.68;91.32
5780;BME280;2916;49.798;10.022;2023-05-14T00:51:54;146679.72;;;9.68;91.47
5780;BME280;2916;49.798;10.022;2023-05-14T00:54:24;146666.06;;;9.63;90.06
5780;BME280;2916;49.798;10.022;2023-05-14T00:56:52;146653.66;;;9.57;90.52
5780;BME280;2916;49.798;10.022;2023-05-14T00:59:19;146646.22;;;9.54;90.46
5780;BME280;2916;49.798;10.022;2023-05-14T01:01:47;146652.44;;;9.57;90.76
5780;BME280;2916;49.798;10.022;2023-05-14T01:04:14;146640.03;;;9.52;89.83
5780;BME280;2916;49.798;10.022;2023-05-14T01:06:53;146640.03;;;9.52;91.05
5780;BME280;2916;49.798;10.022;2023-05-14T01:09:36;146617.69;;;9.43;92.16
5780;BME280;2916;49.798;10.022;2023-05-14T01:12:16;146502.41;;;8.95;91.79
5780;BME280;2916;49.798;10.022;2023-05-14T01:14:54;146610.28;;;9.40;92.35
5780;BME280;2916;49.798;10.022;2023-05-14T01:17:28;146610.28;;;9.40;92.16
5780;BME280;2916;49.798;10.022;2023-05-14T01:19:56;146637.53;;;9.51;92.96
5780;BME280;2916;49.798;10.022;2023-05-14T01:22:25;146641.28;;;9.52;93.31
5780;BME280;2916;49.798;10.022;2023-05-14T01:24:52;146637.53;;;9.51;92.61
5780;BME280;2916;49.798;10.022;2023-05-14T01:27:29;146637.53;;;9.51;93.21
5780;BME280;2916;49.798;10.022;2023-05-14T01:30:08;146622.69;;;9.45;93.65
5780;BME280;2916;49.798;10.022;2023-05-14T01:32:40;146617.69;;;9.43;93.71
5780;BME280;2916;49.798;10.022;2023-05-14T01:35:09;146621.44;;;9.44;94.18
5780;BME280;2916;49.798;10.022;2023-05-14T01:37:40;146635.06;;;9.50;94.64
5780;BME280;2916;49.798;10.022;2023-05-14T01:40:09;146638.81;;;9.51;94.92
5780;BME280;2916;49.798;10.022;2023-05-14T01:42:37;146625.16;;;9.46;94.37
5780;BME280;2916;49.798;10.022;2023-05-14T01:45:05;146627.63;;;9.47;94.29
5780;BME280;2916;49.798;10.022;2023-05-14T01:47:33;146615.22;;;9.42;94.95
5780;BME280;2916;49.798;10.022;2023-05-14T01:50:00;146625.16;;;9.46;95.06
5780;BME280;2916;49.798;10.022;2023-05-14T01:52:28;146610.28;;;9.40;94.04
5780;BME280;2916;49.798;10.022;2023-05-14T01:54:56;146610.28;;;9.40;94.05
5780;BME280;2916;49.798;10.022;2023-05-14T01:57:24;146549.50;;;9.15;93.35
5780;BME280;2916;49.798;10.022;2023-05-14T01:59:52;146574.31;;;9.25;93.50
5780;BME280;2916;49.798;10.022;2023-05-14T02:02:19;146580.50;;;9.27;94.20
5780;BME280;2916;49.798;10.022;2023-05-14T02:04:46;146580.50;;;9.27;94.49
5780;BME280;2916;49.798;10.022;2023-05-14T02:07:13;146580.50;;;9.27;94.46
5780;BME280;2916;49.798;10.022;2023-05-14T02:09:40;146592.91;;;9.32;94.92
5780;BME280;2916;49.798;10.022;2023-05-14T02:12:09;146583.00;;;9.28;94.62
5780;BME280;2916;49.798;10.022;2023-05-14T02:14:37;146564.41;;;9.21;94.06
5780;BME280;2916;49.798;10.022;2023-05-14T02:17:04;146559.44;;;9.19;93.60
5780;BME280;2916;49.798;10.022;2023-05-14T02:19:31;146408.22;;;8.56;93.45
5780;BME280;2916;49.798;10.022;2023-05-14T02:21:59;146547.03;;;9.14;94.01
5780;BME280;2916;49.798;10.022;2023-05-14T02:24:26;146529.69;;;9.06;95.25
5780;BME280;2916;49.798;10.022;2023-05-14T02:26:54;146513.56;;;9.00;96.76
5780;BME280;2916;49.798;10.022;2023-05-14T02:29:22;146516.06;;;9.01;96.12
5780;BME280;2916;49.798;10.022;2023-05-14T02:31:49;146502.41;;;8.95;96.13
5780;BME280;2916;49.798;10.022;2023-05-14T02:34:16;146491.25;;;8.91;95.39
5780;BME280;2916;49.798;10.022;2023-05-14T02:36:43;146490.03;;;8.90;96.85
5780;BME280;2916;49.798;10.022;2023-05-14T02:39:11;146459.06;;;8.77;96.29
5780;BME280;2916;49.798;10.022;2023-05-14T02:41:38;146465.22;;;8.80;95.56
5780;BME280;2916;49.798;10.022;2023-05-14T02:44:05;146478.88;;;8.85;95.76
5780;BME280;2916;49.798;10.022;2023-05-14T02:46:34;146475.13;;;8.84;96.07
5780;BME280;2916;49.798;10.022;2023-05-14T02:49:01;146485.03;;;8.88;95.76
5780;BME280;2916;49.798;10.022;2023-05-14T02:51:28;146501.16;;;8.95;96.29
5780;BME280;2916;49.798;10.022;2023-05-14T02:53:55;146498.69;;;8.94;96.27
5780;BME280;2916;49.798;10.022;2023-05-14T02:56:23;146508.63;;;8.98;96.88
5780;BME280;2916;49.798;10.022;2023-05-14T02:58:51;146511.09;;;8.99;96.94
5780;BME280;2916;49.798;10.022;2023-05-14T03:01:18;146525.97;;;9.05;97.44
5780;BME280;2916;49.798;10.022;2023-05-14T03:03:46;146533.44;;;9.08;97.41
5780;BME280;2916;49.798;10.022;2023-05-14T03:06:14;146556.97;;;9.18;98.22
5780;BME280;2916;49.798;10.022;2023-05-14T03:08:41;146565.63;;;9.21;98.52
5780;BME280;2916;49.798;10.022;2023-05-14T03:11:08;146570.56;;;9.23;98.55
5780;BME280;2916;49.798;10.022;2023-05-14T03:13:35;146568.13;;;9.22;98.24
5780;BME280;2916;49.798;10.022;2023-05-14T03:16:02;146587.94;;;9.30;98.78
5780;BME280;2916;49.798;10.022;2023-05-14T03:18:29;146595.41;;;9.33;99.34
5780;BME280;2916;49.798;10.022;2023-05-14T03:20:59;146587.94;;;9.30;99.05
5780;BME280;2916;49.798;10.022;2023-05-14T03:23:26;146614.00;;;9.41;99.77
5780;BME280;2916;49.798;10.022;2023-05-14T03:25:53;146604.06;;;9.37;99.11
5780;BME280;2916;49.798;10.022;2023-05-14T03:28:21;146563.19;;;9.20;98.65
5780;BME280;2916;49.798;10.022;2023-05-14T03:30:48;146637.53;;;9.51;99.36
5780;BME280;2916;49.798;10.022;2023-05-14T03:33:15;146637.53;;;9.51;98.74
5780;BME280;2916;49.798;10.022;2023-05-14T03:35:42;146646.22;;;9.54;98.42
5780;BME280;2916;49.798;10.022;2023-05-14T03:38:11;146652.44;;;9.57;98.60
5780;BME280;2916;49.798;10.022;2023-05-14T03:40:38;146659.88;;;9.60;98.36
5780;BME280;2916;49.798;10.022;2023-05-14T03:43:06;146672.28;;;9.65;98.56
5780;BME280;2916;49.798;10.022;2023-05-14T03:45:34;146685.94;;;9.71;99.59
5780;BME280;2916;49.798;10.022;2023-05-14T03:48:01;146703.25;;;9.78;99.36
5780;BME280;2916;49.798;10.022;2023-05-14T03:50:28;146697.09;;;9.75;98.82
5780;BME280;2916;49.798;10.022;2023-05-14T03:52:55;146718.16;;;9.84;99.21
5780;BME280;2916;49.798;10.022;2023-05-14T03:55:24;146724.38;;;9.87;98.96
5780;BME280;2916;49.798;10.022;2023-05-14T03:57:51;146740.47;;;9.93;98.53
5780;BME280;2916;49.798;10.022;2023-05-14T04:00:19;146754.16;;;9.99;98.95
5780;BME280;2916;49.798;10.022;2023-05-14T04:02:46;146751.63;;;9.98;98.52
5780;BME280;2916;49.798;10.022;2023-05-14T04:05:13;146755.38;;;9.99;98.79
5780;BME280;2916;49.798;10.022;2023-05-14T04:07:40;146734.31;;;9.91;98.49
5780;BME280;2916;49.798;10.022;2023-05-14T04:10:08;146747.94;;;9.96;98.62
5780;BME280;2916;49.798;10.022;2023-05-14T04:12:37;146774.00;;;10.07;98.29
5780;BME280;2916;49.798;10.022;2023-05-14T04:15:05;146798.78;;;10.17;98.62
5780;BME280;2916;49.798;10.022;2023-05-14T04:17:33;146812.44;;;10.23;98.67
5780;BME280;2916;49.798;10.022;2023-05-14T04:20:00;146823.66;;;10.27;98.54
5780;BME280;2916;49.798;10.022;2023-05-14T04:22:27;146831.09;;;10.30;98.54
5780;BME280;2916;49.798;10.022;2023-05-14T04:24:54;146847.22;;;10.37;98.11
5780;BME280;2916;49.798;10.022;2023-05-14T04:27:21;146852.19;;;10.39;97.56
5780;BME280;2916;49.798;10.022;2023-05-14T04:29:50;146875.75;;;10.49;98.09
5780;BME280;2916;49.798;10.022;2023-05-14T04:32:17;146886.94;;;10.53;97.44
5780;BME280;2916;49.798;10.022;2023-05-14T04:34:44;146883.19;;;10.52;97.77
5780;BME280;2916;49.798;10.022;2023-05-14T04:37:11;146903.06;;;10.60;97.12
5780;BME280;2916;49.798;10.022;2023-05-14T04:39:38;146899.34;;;10.59;96.34
5780;BME280;2916;49.798;10.022;2023-05-14T04:42:06;146925.41;;;10.69;97.22
5780;BME280;2916;49.798;10.022;2023-05-14T04:44:34;146940.28;;;10.75;96.93
5780;BME280;2916;49.798;10.022;2023-05-14T04:47:04;146962.66;;;10.85;96.38
5780;BME280;2916;49.798;10.022;2023-05-14T04:49:31;146968.84;;;10.87;95.70
5780;BME280;2916;49.798;10.022;2023-05-14T04:52:00;147016.00;;;11.06;95.62
5780;BME280;2916;49.798;10.022;2023-05-14T04:54:27;147033.41;;;11.14;96.27
5780;BME280;2916;49.798;10.022;2023-05-14T04:56:54;147039.63;;;11.16;96.62
5780;BME280;2916;49.798;10.022;2023-05-14T04:59:21;147042.09;;;11.17;96.90
5780;BME280;2916;49.798;10.022;2023-05-14T05:01:48;147054.50;;;11.22;95.50
5780;BME280;2916;49.798;10.022;2023-05-14T05:04:17;147064.41;;;11.26;95.20
5780;BME280;2916;49.798;10.022;2023-05-14T05:06:45;147061.94;;;11.25;95.34
5780;BME280;2916;49.798;10.022;2023-05-14T05:09:12;146962.66;;;10.85;95.34
5780;BME280;2916;49.798;10.022;2023-05-14T05:11:39;147080.56;;;11.33;95.49
5780;BME280;2916;49.798;10.022;2023-05-14T05:14:07;147097.97;;;11.40;95.92
5780;BME280;2916;49.798;10.022;2023-05-14T05:16:34;147111.59;;;11.46;94.96
5780;BME280;2916;49.798;10.022;2023-05-14T05:19:01;147114.06;;;11.47;93.99
5780;BME280;2916;49.798;10.022;2023-05-14T05:21:29;147104.13;;;11.43;93.09
5780;BME280;2916;49.798;10.022;2023-05-14T05:23:57;147138.94;;;11.57;93.48
5780;BME280;2916;49.798;10.022;2023-05-14T05:26:24;147146.41;;;11.60;93.20
5780;BME280;2916;49.798;10.022;2023-05-14T05:28:52;147158.78;;;11.65;92.24
5780;BME280;2916;49.798;10.022;2023-05-14T05:31:19;147146.41;;;11.60;91.99
5780;BME280;2916;49.798;10.022;2023-05-14T05:33:46;147161.25;;;11.66;91.65
5780;BME280;2916;49.798;10.022;2023-05-14T05:36:14;147158.78;;;11.65;92.51
5780;BME280;2916;49.798;10.022;2023-05-14T05:38:42;147171.19;;;11.70;91.62
5780;BME280;2916;49.798;10.022;2023-05-14T05:41:09;147116.59;;;11.48;91.06
5780;BME280;2916;49.798;10.022;2023-05-14T05:43:37;147166.25;;;11.68;91.34
5780;BME280;2916;49.798;10.022;2023-05-14T05:46:04;147189.81;;;11.78;91.78
5780;BME280;2916;49.798;10.022;2023-05-14T05:48:31;147191.06;;;11.78;90.95
5780;BME280;2916;49.798;10.022;2023-05-14T05:50:58;147213.50;;;11.88;91.71
5780;BME280;2916;49.798;10.022;2023-05-14T05:53:25;147228.38;;;11.94;90.75
5780;BME280;2916;49.798;10.022;2023-05-14T05:55:54;147245.78;;;12.01;90.53
5780;BME280;2916;49.798;10.022;2023-05-14T05:58:21;147249.53;;;12.02;89.94
5780;BME280;2916;49.798;10.022;2023-05-14T06:00:48;147252.00;;;12.03;89.86
5780;BME280;2916;49.798;10.022;2023-05-14T06:03:16;147269.41;;;12.11;90.65
5780;BME280;2916;49.798;10.022;2023-05-14T06:05:43;147223.44;;;11.92;89.06
5780;BME280;2916;49.798;10.022;2023-05-14T06:08:11;147278.06;;;12.14;89.00
5780;BME280;2916;49.798;10.022;2023-05-14T06:10:38;147245.78;;;12.01;87.74
5780;BME280;2916;49.798;10.022;2023-05-14T06:13:07;147233.38;;;11.96;88.78
5780;BME280;2916;49.798;10.022;2023-05-14T06:15:34;147228.38;;;11.94;89.19
5780;BME280;2916;49.798;10.022;2023-05-14T06:18:02;147260.72;;;12.07;89.73
5780;BME280;2916;49.798;10.022;2023-05-14T06:20:29;147316.63;;;12.30;89.21
5780;BME280;2916;49.798;10.022;2023-05-14T06:22:56;147379.97;;;12.56;88.88
5780;BME280;2916;49.798;10.022;2023-05-14T06:25:24;147427.19;;;12.75;87.13
5780;BME280;2916;49.798;10.022;2023-05-14T06:27:51;147413.53;;;12.70;86.32
5780;BME280;2916;49.798;10.022;2023-05-14T06:30:19;147464.47;;;12.91;86.55
5780;BME280;2916;49.798;10.022;2023-05-14T06:32:47;147534.06;;;13.19;85.20
5780;BME280;2916;49.798;10.022;2023-05-14T06:35:14;147559.00;;;13.30;84.75
5780;BME280;2916;49.798;10.022;2023-05-14T06:37:41;147457.00;;;12.88;84.44
5780;BME280;2916;49.798;10.022;2023-05-14T06:40:09;147539.06;;;13.21;83.30
5780;BME280;2916;49.798;10.022;2023-05-14T06:42:37;147662.22;;;13.72;82.14
5780;BME280;2916;49.798;10.022;2023-05-14T06:45:05;147663.47;;;13.72;80.88
5780;BME280;2916;49.798;10.022;2023-05-14T06:47:34;147807.75;;;14.32;79.97
5780;BME280;2916;49.798;10.022;2023-05-14T06:50:01;148031.78;;;15.23;78.53
5780;BME280;2916;49.798;10.022;2023-05-14T06:52:28;148023.06;;;15.20;77.14
5780;BME280;2916;49.798;10.022;2023-05-14T06:54:56;147777.91;;;14.19;77.15
5780;BME280;2916;49.798;10.022;2023-05-14T06:57:23;147914.81;;;14.76;77.94
5780;BME280;2916;49.798;10.022;2023-05-14T06:59:50;147784.09;;;14.22;77.11
5780;BME280;2916;49.798;10.022;2023-05-14T07:02:17;147942.19;;;14.87;76.30
5780;BME280;2916;49.798;10.022;2023-05-14T07:04:46;147810.22;;;14.33;76.26
5780;BME280;2916;49.798;10.022;2023-05-14T07:07:13;147785.31;;;14.22;77.21
5780;BME280;2916;49.798;10.022;2023-05-14T07:09:45;147776.66;;;14.19;78.35
5780;BME280;2916;49.798;10.022;2023-05-14T07:12:12;147898.59;;;14.69;76.24
5780;BME280;2916;49.798;10.022;2023-05-14T07:14:39;147917.28;;;14.77;73.94
5780;BME280;2916;49.798;10.022;2023-05-14T07:17:06;147934.72;;;14.84;75.00
5780;BME280;2916;49.798;10.022;2023-05-14T07:19:34;147944.66;;;14.88;73.96
5780;BME280;2916;49.798;10.022;2023-05-14T07:22:03;148196.19;;;15.91;71.43
5780;BME280;2916;49.798;10.022;2023-05-14T07:24:30;148253.47;;;16.14;71.93
5780;BME280;2916;49.798;10.022;2023-05-14T07:26:57;148077.88;;;15.42;71.89
5780;BME280;2916;49.798;10.022;2023-05-14T07:29:25;147957.09;;;14.93;72.98
5780;BME280;2916;49.798;10.022;2023-05-14T07:31:54;148542.63;;;17.33;72.09
5780;BME280;2916;49.798;10.022;2023-05-14T07:34:22;148609.94;;;17.60;65.70
5780;BME280;2916;49.798;10.022;2023-05-14T07:36:49;148471.59;;;17.04;67.42
5780;BME280;2916;49.798;10.022;2023-05-14T07:39:17;148560.09;;;17.40;68.18
5780;BME280;2916;49.798;10.022;2023-05-14T07:41:44;148631.16;;;17.69;64.28
5780;BME280;2916;49.798;10.022;2023-05-14T07:44:12;148421.75;;;16.83;66.14
5780;BME280;2916;49.798;10.022;2023-05-14T07:46:39;148285.91;;;16.28;66.78
5780;BME280;2916;49.798;10.022;2023-05-14T07:49:06;148616.19;;;17.63;65.73
5780;BME280;2916;49.798;10.022;2023-05-14T07:51:33;148535.19;;;17.30;64.71
5780;BME280;2916;49.798;10.022;2023-05-14T07:54:00;148644.91;;;17.75;65.01
5780;BME280;2916;49.798;10.022;2023-05-14T07:56:29;148840.72;;;18.55;61.76
5780;BME280;2916;49.798;10.022;2023-05-14T07:58:56;148677.31;;;17.88;62.63
5780;BME280;2916;49.798;10.022;2023-05-14T08:01:23;148612.47;;;17.61;63.96
5780;BME280;2916;49.798;10.022;2023-05-14T08:03:51;148724.72;;;18.07;64.39
5780;BME280;2916;49.798;10.022;2023-05-14T08:06:18;148475.31;;;17.05;62.82
5780;BME280;2916;49.798;10.022;2023-05-14T08:08:46;148587.50;;;17.51;64.02
5780;BME280;2916;49.798;10.022;2023-05-14T08:11:14;148693.53;;;17.95;63.31
5780;BME280;2916;49.798;10.022;2023-05-14T08:13:42;148532.66;;;17.29;64.16
5780;BME280;2916;49.798;10.022;2023-05-14T08:16:09;148629.94;;;17.69;62.38
5780;BME280;2916;49.798;10.022;2023-05-14T08:18:36;148935.59;;;18.94;59.96
5780;BME280;2916;49.798;10.022;2023-05-14T08:21:04;148684.81;;;17.91;63.23
5780;BME280;2916;49.798;10.022;2023-05-14T08:23:31;148687.34;;;17.92;61.76
5780;BME280;2916;49.798;10.022;2023-05-14T08:25:59;148515.25;;;17.22;61.79
5780;BME280;2916;49.798;10.022;2023-05-14T08:28:26;148632.41;;;17.70;63.47
5780;BME280;2916;49.798;10.022;2023-05-14T08:30:54;148604.97;;;17.58;62.25
5780;BME280;2916;49.798;10.022;2023-05-14T08:33:21;148664.84;;;17.83;62.55
5780;BME280;2916;49.798;10.022;2023-05-14T08:35:50;148668.63;;;17.84;61.91
5780;BME280;2916;49.798;10.022;2023-05-14T08:38:17;148515.25;;;17.22;63.49
5780;BME280;2916;49.798;10.022;2023-05-14T08:40:47;148530.16;;;17.28;64.11
5780;BME280;2916;49.798;10.022;2023-05-14T08:43:25;148744.66;;;18.15;65.13
5780;BME280;2916;49.798;10.022;2023-05-14T08:45:57;148856.94;;;18.61;61.36
5780;BME280;2916;49.798;10.022;2023-05-14T08:48:31;148822.03;;;18.47;61.77
5780;BME280;2916;49.798;10.022;2023-05-14T08:50:59;148925.59;;;18.89;62.01
5780;BME280;2916;49.798;10.022;2023-05-14T08:53:27;148934.34;;;18.93;60.80
5780;BME280;2916;49.798;10.022;2023-05-14T08:55:55;148951.81;;;19.00;60.53
5780;BME280;2916;49.798;10.022;2023-05-14T08:58:24;149020.44;;;19.28;60.18
5780;BME280;2916;49.798;10.022;2023-05-14T09:00:55;148946.84;;;18.98;60.11
5780;BME280;2916;49.798;10.022;2023-05-14T09:03:23;149016.72;;;19.27;60.69
5780;BME280;2916;49.798;10.022;2023-05-14T09:05:51;149000.50;;;19.20;59.64
5780;BME280;2916;49.798;10.022;2023-05-14T09:08:19;149036.69;;;19.35;59.48
5780;BME280;2916;49.798;10.022;2023-05-14T09:10:46;148929.38;;;18.91;59.29
5780;BME280;2916;49.798;10.022;2023-05-14T09:13:14;148914.38;;;18.85;60.09
5780;BME280;2916;49.798;10.022;2023-05-14T09:15:41;148953.06;;;19.01;59.63
5780;BME280;2916;49.798;10.022;2023-05-14T09:18:09;149037.94;;;19.35;58.61
5780;BME280;2916;49.798;10.022;2023-05-14T09:20:37;148975.56;;;19.10;58.22
5780;BME280;2916;49.798;10.022;2023-05-14T09:23:04;148954.31;;;19.01;59.31
5780;BME280;2916;49.798;10.022;2023-05-14T09:25:32;148940.59;;;18.96;57.86
5780;BME280;2916;49.798;10.022;2023-05-14T09:28:04;149044.19;;;19.38;58.42
5780;BME280;2916;49.798;10.022;2023-05-14T09:30:31;148823.28;;;18.48;58.82
5780;BME280;2916;49.798;10.022;2023-05-14T09:32:59;148738.44;;;18.13;60.19
5780;BME280;2916;49.798;10.022;2023-05-14T09:35:30;148823.28;;;18.48;61.75
5780;BME280;2916;49.798;10.022;2023-05-14T09:37:58;148854.47;;;18.60;60.44
5780;BME280;2916;49.798;10.022;2023-05-14T09:40:25;148919.41;;;18.87;60.04
5780;BME280;2916;49.798;10.022;2023-05-14T09:42:53;148923.13;;;18.88;60.42
5780;BME280;2916;49.798;10.022;2023-05-14T09:45:21;148603.75;;;17.58;60.70
5780;BME280;2916;49.798;10.022;2023-05-14T09:47:48;148460.38;;;16.99;63.00
5780;BME280;2916;49.798;10.022;2023-05-14T09:50:16;148373.09;;;16.63;62.68
5780;BME280;2916;49.798;10.022;2023-05-14T09:52:44;148360.63;;;16.58;62.94
5780;BME280;2916;49.798;10.022;2023-05-14T09:55:12;148353.19;;;16.55;63.61
5780;BME280;2916;49.798;10.022;2023-05-14T09:57:40;148365.63;;;16.60;65.47
5780;BME280;2916;49.798;10.022;2023-05-14T10:00:08;148363.13;;;16.59;67.42
5780;BME280;2916;49.798;10.022;2023-05-14T10:02:38;148411.78;;;16.79;64.31
5780;BME280;2916;49.798;10.022;2023-05-14T10:05:07;148368.09;;;16.61;64.43
5780;BME280;2916;49.798;10.022;2023-05-14T10:07:40;148346.94;;;16.53;64.72
5780;BME280;2916;49.798;10.022;2023-05-14T10:10:15;148340.69;;;16.50;64.14
5780;BME280;2916;49.798;10.022;2023-05-14T10:12:51;148335.72;;;16.48;64.78
5780;BME280;2916;49.798;10.022;2023-05-14T10:15:24;148421.75;;;16.83;63.93
5780;BME280;2916;49.798;10.022;2023-05-14T10:17:56;148460.38;;;16.99;63.55
5780;BME280;2916;49.798;10.022;2023-05-14T10:20:26;148634.91;;;17.71;62.18
5780;BME280;2916;49.798;10.022;2023-05-14T10:22:54;148423.00;;;16.84;61.15
5780;BME280;2916;49.798;10.022;2023-05-14T10:25:24;148462.88;;;17.00;63.06
5780;BME280;2916;49.798;10.022;2023-05-14T10:27:51;148596.25;;;17.55;61.87
5780;BME280;2916;49.798;10.022;2023-05-14T10:30:21;148592.53;;;17.53;62.25
5780;BME280;2916;49.798;10.022;2023-05-14T10:32:48;148876.91;;;18.70;60.54
5780;BME280;2916;49.798;10.022;2023-05-14T10:35:17;148886.94;;;18.74;60.32
5780;BME280;2916;49.798;10.022;2023-05-14T10:37:50;148618.66;;;17.64;61.66
5780;BME280;2916;49.798;10.022;2023-05-14T10:40:17;148624.91;;;17.66;61.80
5780;BME280;2916;49.798;10.022;2023-05-14T10:42:46;148597.47;;;17.55;62.56
5780;BME280;2916;49.798;10.022;2023-05-14T10:45:15;148522.69;;;17.25;61.50
5780;BME280;2916;49.798;10.022;2023-05-14T10:47:45;148497.78;;;17.14;61.53
5780;BME280;2916;49.798;10.022;2023-05-14T10:50:14;148536.41;;;17.30;62.70
5780;BME280;2916;49.798;10.022;2023-05-14T10:52:43;148557.59;;;17.39;62.72
5780;BME280;2916;49.798;10.022;2023-05-14T10:55:14;148667.34;;;17.84;61.26
5780;BME280;2916;49.798;10.022;2023-05-14T10:57:45;148599.97;;;17.56;61.86
5780;BME280;2916;49.798;10.022;2023-05-14T11:00:15;148849.44;;;18.58;60.76
5780;BME280;2916;49.798;10.022;2023-05-14T11:02:43;148666.09;;;17.83;60.25
5780;BME280;2916;49.798;10.022;2023-05-14T11:05:13;148663.63;;;17.82;60.35
5780;BME280;2916;49.798;10.022;2023-05-14T11:07:44;148643.63;;;17.74;58.82
5780;BME280;2916;49.798;10.022;2023-05-14T11:10:13;148708.53;;;18.01;60.91
5780;BME280;2916;49.798;10.022;2023-05-14T11:12:42;148624.91;;;17.66;60.49
5780;BME280;2916;49.798;10.022;2023-05-14T11:15:15;148829.50;;;18.50;59.89
5780;BME280;2916;49.798;10.022;2023-05-14T11:17:44;148634.91;;;17.71;58.99
5780;BME280;2916;49.798;10.022;2023-05-14T11:20:12;148834.50;;;18.52;59.17
5780;BME280;2916;49.798;10.022;2023-05-14T11:22:42;148750.91;;;18.18;59.21
5780;BME280;2916;49.798;10.022;2023-05-14T11:25:11;149021.69;;;19.29;58.25
5780;BME280;2916;49.798;10.022;2023-05-14T11:27:41;149101.66;;;19.61;57.25
5780;BME280;2916;49.798;10.022;2023-05-14T11:30:19;148966.81;;;19.06;55.56
5780;BME280;2916;49.798;10.022;2023-05-14T11:32:48;148851.97;;;18.59;55.91
5780;BME280;2916;49.798;10.022;2023-05-14T11:36:02;148939.34;;;18.95;59.09
5780;BME280;2916;49.798;10.022;2023-05-14T11:38:48;148813.31;;;18.44;55.69
5780;BME280;2916;49.798;10.022;2023-05-14T11:41:16;148960.56;;;19.04;57.11
5780;BME280;2916;49.798;10.022;2023-05-14T11:43:47;149026.72;;;19.31;55.42
5780;BME280;2916;49.798;10.022;2023-05-14T11:46:18;148999.25;;;19.20;55.48
5780;BME280;2916;49.798;10.022;2023-05-14T11:48:46;149054.19;;;19.42;54.07
5780;BME280;2916;49.798;10.022;2023-05-14T11:51:13;148930.63;;;18.92;54.43
5780;BME280;2916;49.798;10.022;2023-05-14T11:53:41;148924.34;;;18.89;54.67
5780;BME280;2916;49.798;10.022;2023-05-14T11:56:08;149034.22;;;19.34;54.42
5780;BME280;2916;49.798;10.022;2023-05-14T11:58:36;149167.84;;;19.89;52.20
5780;BME280;2916;49.798;10.022;2023-05-14T12:01:03;149395.16;;;20.81;52.64
5780;BME280;2916;49.798;10.022;2023-05-14T12:03:32;149307.66;;;20.46;55.08
5780;BME280;2916;49.798;10.022;2023-05-14T12:06:05;149381.44;;;20.76;51.74
5780;BME280;2916;49.798;10.022;2023-05-14T12:08:32;149296.44;;;20.41;51.88
5780;BME280;2916;49.798;10.022;2023-05-14T12:11:00;149325.22;;;20.53;52.90
5780;BME280;2916;49.798;10.022;2023-05-14T12:13:29;149268.94;;;20.30;54.23
5780;BME280;2916;49.798;10.022;2023-05-14T12:15:59;149373.91;;;20.73;50.17
5780;BME280;2916;49.798;10.022;2023-05-14T12:18:29;149361.44;;;20.68;52.94
5780;BME280;2916;49.798;10.022;2023-05-14T12:21:02;149521.38;;;21.33;50.16
5780;BME280;2916;49.798;10.022;2023-05-14T12:23:30;149416.38;;;20.90;52.12
5780;BME280;2916;49.798;10.022;2023-05-14T12:26:01;149356.44;;;20.66;51.39
5780;BME280;2916;49.798;10.022;2023-05-14T12:28:31;149310.16;;;20.47;51.25
5780;BME280;2916;49.798;10.022;2023-05-14T12:30:59;149443.88;;;21.01;50.61
5780;BME280;2916;49.798;10.022;2023-05-14T12:33:26;149618.84;;;21.73;49.67
5780;BME280;2916;49.798;10.022;2023-05-14T12:35:54;149381.44;;;20.76;48.98
5780;BME280;2916;49.798;10.022;2023-05-14T12:38:27;149281.44;;;20.35;50.59
5780;BME280;2916;49.798;10.022;2023-05-14T12:40:54;149221.50;;;20.10;50.39
5780;BME280;2916;49.798;10.022;2023-05-14T12:43:22;149468.88;;;21.12;51.36
5780;BME280;2916;49.798;10.022;2023-05-14T12:45:49;149337.69;;;20.58;50.22
5780;BME280;2916;49.798;10.022;2023-05-14T12:48:16;149493.84;;;21.22;51.26
5780;BME280;2916;49.798;10.022;2023-05-14T12:50:43;149496.38;;;21.23;50.34
5780;BME280;2916;49.798;10.022;2023-05-14T12:53:11;149556.38;;;21.47;50.61
5780;BME280;2916;49.798;10.022;2023-05-14T12:55:42;149647.59;;;21.85;50.45
5780;BME280;2916;49.798;10.022;2023-05-14T12:58:09;149616.38;;;21.72;48.44
5780;BME280;2916;49.798;10.022;2023-05-14T13:00:36;149585.13;;;21.59;49.34
5780;BME280;2916;49.798;10.022;2023-05-14T13:03:04;149586.38;;;21.60;49.86
5780;BME280;2916;49.798;10.022;2023-05-14T13:05:31;149588.88;;;21.61;49.57
5780;BME280;2916;49.798;10.022;2023-05-14T13:07:59;149533.91;;;21.38;50.96